createdAt,value
2023-03-17T00:01:20.303Z,5.37
2023-03-17T00:03:50.377Z,5.36
2023-03-17T00:06:30.956Z,5.39
2023-03-17T00:08:59.105Z,5.44
2023-03-17T00:11:28.987Z,5.39
2023-03-17T00:13:56.625Z,5.42
2023-03-17T00:16:27.056Z,5.41
2023-03-17T00:18:56.701Z,5.43
2023-03-17T00:21:28.370Z,5.49
2023-03-17T00:23:56.397Z,5.48
2023-03-17T00:26:24.435Z,5.46
2023-03-17T00:28:55.226Z,5.38
2023-03-17T00:31:26.128Z,5.32
2023-03-17T00:33:55.802Z,5.31
2023-03-17T00:36:25.167Z,5.30
2023-03-17T00:38:53.498Z,5.33
2023-03-17T00:41:22.374Z,5.31
2023-03-17T00:43:50.832Z,5.31
2023-03-17T00:46:25.168Z,5.22
2023-03-17T00:48:54.234Z,5.17
2023-03-17T00:51:22.228Z,5.09
2023-03-17T00:53:50.431Z,5.00
2023-03-17T00:56:20.779Z,5.00
2023-03-17T00:58:50.335Z,5.04
2023-03-17T01:01:18.708Z,5.06
2023-03-17T01:03:50.551Z,5.05
2023-03-17T01:06:18.622Z,5.11
2023-03-17T01:08:46.517Z,5.12
2023-03-17T01:11:18.526Z,5.11
2023-03-17T01:13:48.928Z,5.12
2023-03-17T01:16:16.938Z,5.14
2023-03-17T01:18:45.547Z,5.16
2023-03-17T01:21:15.360Z,5.21
2023-03-17T01:23:43.613Z,5.17
2023-03-17T01:26:11.672Z,5.18
2023-03-17T01:28:39.465Z,5.18
2023-03-17T01:31:07.136Z,5.15
2023-03-17T01:33:35.091Z,5.16
2023-03-17T01:36:03.775Z,5.15
2023-03-17T01:38:33.174Z,5.17
2023-03-17T01:41:02.300Z,5.18
2023-03-17T01:43:31.762Z,5.20
2023-03-17T01:46:25.965Z,5.23
2023-03-17T01:49:04.577Z,5.16
2023-03-17T01:51:37.724Z,5.16
2023-03-17T01:54:10.504Z,5.13
2023-03-17T01:56:42.039Z,5.15
2023-03-17T01:59:14.270Z,5.17
2023-03-17T02:01:47.213Z,5.15
2023-03-17T02:04:16.260Z,5.15
2023-03-17T02:06:57.419Z,5.13
2023-03-17T02:09:28.782Z,5.08
2023-03-17T02:11:58.685Z,4.99
2023-03-17T02:14:27.236Z,4.96
2023-03-17T02:16:55.846Z,4.95
2023-03-17T02:19:23.613Z,4.92
2023-03-17T02:21:55.466Z,4.95
2023-03-17T02:24:31.870Z,4.83
2023-03-17T02:27:06.645Z,4.84
2023-03-17T02:29:37.735Z,4.80
2023-03-17T02:32:07.212Z,4.68
2023-03-17T02:34:36.709Z,4.67
2023-03-17T02:37:07.654Z,4.67
2023-03-17T02:39:35.453Z,4.61
2023-03-17T02:42:04.619Z,4.54
2023-03-17T02:44:33.226Z,4.49
2023-03-17T02:47:01.490Z,4.46
2023-03-17T02:49:30.770Z,4.45
2023-03-17T02:51:59.372Z,4.46
2023-03-17T02:54:28.788Z,4.39
2023-03-17T02:56:56.734Z,4.33
2023-03-17T02:59:24.596Z,4.35
2023-03-17T03:01:52.303Z,4.32
2023-03-17T03:04:20.903Z,4.32
2023-03-17T03:06:48.650Z,4.29
2023-03-17T03:09:17.749Z,4.25
2023-03-17T03:11:47.823Z,4.27
2023-03-17T03:14:16.216Z,4.25
2023-03-17T03:16:44.415Z,4.23
2023-03-17T03:19:12.536Z,4.21
2023-03-17T03:21:40.568Z,4.21
2023-03-17T03:24:08.508Z,4.22
2023-03-17T03:26:37.011Z,4.18
2023-03-17T03:29:07.470Z,4.20
2023-03-17T03:31:35.255Z,4.15
2023-03-17T03:34:04.368Z,4.10
2023-03-17T03:36:32.343Z,4.08
2023-03-17T03:39:02.158Z,4.02
2023-03-17T03:41:30.217Z,4.01
2023-03-17T03:43:58.181Z,3.92
2023-03-17T03:46:27.546Z,3.91
2023-03-17T03:48:56.015Z,3.99
2023-03-17T03:51:23.852Z,3.96
2023-03-17T03:53:51.548Z,3.89
2023-03-17T03:56:19.420Z,3.89
2023-03-17T03:58:47.263Z,3.89
2023-03-17T04:01:15.095Z,3.87
2023-03-17T04:03:46.930Z,3.81
2023-03-17T04:06:14.583Z,3.81
2023-03-17T04:08:42.284Z,3.78
2023-03-17T04:11:12.344Z,3.76
2023-03-17T04:13:40.131Z,3.77
2023-03-17T04:16:08.678Z,3.79
2023-03-17T04:18:36.820Z,3.76
2023-03-17T04:21:08.279Z,3.80
2023-03-17T04:23:36.305Z,3.78
2023-03-17T04:26:05.415Z,3.75
2023-03-17T04:28:33.290Z,3.68
2023-03-17T04:31:01.680Z,3.68
2023-03-17T04:33:29.694Z,3.69
2023-03-17T04:35:58.446Z,3.65
2023-03-17T04:38:27.631Z,3.62
2023-03-17T04:40:55.522Z,3.60
2023-03-17T04:43:23.286Z,3.62
2023-03-17T04:45:51.259Z,3.60
2023-03-17T04:48:19.145Z,3.57
2023-03-17T04:50:47.864Z,3.53
2023-03-17T04:53:15.568Z,3.44
2023-03-17T04:55:45.128Z,3.43
2023-03-17T04:58:21.103Z,3.44
2023-03-17T05:00:55.914Z,3.44
2023-03-17T05:03:27.656Z,3.42
2023-03-17T05:05:55.857Z,3.41
2023-03-17T05:08:23.657Z,3.43
2023-03-17T05:10:52.965Z,3.45
2023-03-17T05:13:20.703Z,3.45
2023-03-17T05:15:49.137Z,3.47
2023-03-17T05:18:17.503Z,3.41
2023-03-17T05:20:45.508Z,3.36
2023-03-17T05:23:13.457Z,3.35
2023-03-17T05:25:41.688Z,3.34
2023-03-17T05:28:11.905Z,3.36
2023-03-17T05:30:40.439Z,3.24
2023-03-17T05:33:08.311Z,3.06
2023-03-17T05:35:36.240Z,3.06
2023-03-17T05:38:04.850Z,3.13
2023-03-17T05:40:32.793Z,3.12
2023-03-17T05:43:01.163Z,3.14
2023-03-17T05:45:31.108Z,3.18
2023-03-17T05:47:59.245Z,3.18
2023-03-17T05:50:27.918Z,3.17
2023-03-17T05:52:55.641Z,3.10
2023-03-17T05:55:23.308Z,3.11
2023-03-17T05:57:51.255Z,3.10
2023-03-17T06:00:21.425Z,3.15
2023-03-17T06:02:50.584Z,3.19
2023-03-17T06:05:18.349Z,3.20
2023-03-17T06:07:54.690Z,3.20
2023-03-17T06:10:24.803Z,3.24
2023-03-17T06:12:52.570Z,3.30
2023-03-17T06:15:20.450Z,3.36
2023-03-17T06:17:48.203Z,3.41
2023-03-17T06:20:17.884Z,3.47
2023-03-17T06:23:02.374Z,3.52
2023-03-17T06:25:32.238Z,3.58
2023-03-17T06:28:02.142Z,3.62
2023-03-17T06:30:30.180Z,3.70
2023-03-17T06:32:58.171Z,3.74
2023-03-17T06:35:27.611Z,3.78
2023-03-17T06:37:55.419Z,3.82
2023-03-17T06:40:23.609Z,3.88
2023-03-17T06:42:51.433Z,3.91
2023-03-17T06:45:20.137Z,3.95
2023-03-17T06:47:47.872Z,4.02
2023-03-17T06:50:16.383Z,4.12
2023-03-17T06:52:46.888Z,4.21
2023-03-17T06:55:15.315Z,4.25
2023-03-17T06:57:43.601Z,4.36
2023-03-17T07:00:14.014Z,4.46
2023-03-17T07:02:42.152Z,4.51
2023-03-17T07:05:10.414Z,4.62
2023-03-17T07:07:39.514Z,4.75
2023-03-17T07:10:11.491Z,4.78
2023-03-17T07:12:39.252Z,4.92
2023-03-17T07:15:09.249Z,4.97
2023-03-17T07:18:31.609Z,5.08
2023-03-17T07:24:00.767Z,5.57
2023-03-17T07:26:32.922Z,5.75
2023-03-17T07:29:01.351Z,5.77
2023-03-17T07:31:29.203Z,5.91
2023-03-17T07:33:57.751Z,6.11
2023-03-17T07:36:25.440Z,6.16
2023-03-17T07:38:53.396Z,6.31
2023-03-17T07:41:22.279Z,6.66
2023-03-17T07:43:52.309Z,6.67
2023-03-17T07:46:20.552Z,6.73
2023-03-17T07:48:49.871Z,6.80
2023-03-17T07:51:21.070Z,7.04
2023-03-17T07:53:50.635Z,7.20
2023-03-17T07:56:18.944Z,7.27
2023-03-17T07:58:47.102Z,7.40
2023-03-17T08:01:16.519Z,7.53
2023-03-17T08:03:44.373Z,7.84
2023-03-17T08:06:12.233Z,8.08
2023-03-17T08:08:39.897Z,8.43
2023-03-17T08:11:07.848Z,8.59
2023-03-17T08:13:35.881Z,8.89
2023-03-17T08:16:03.696Z,8.84
2023-03-17T08:18:33.006Z,9.01
2023-03-17T08:21:01.000Z,9.13
2023-03-17T08:23:28.887Z,9.27
2023-03-17T08:25:58.374Z,9.68
2023-03-17T08:28:27.138Z,10.00
2023-03-17T08:30:55.808Z,10.20
2023-03-17T08:36:31.575Z,10.91
2023-03-17T08:39:00.781Z,11.39
2023-03-17T08:41:29.293Z,11.71
2023-03-17T08:43:57.847Z,11.90
2023-03-17T08:46:28.098Z,12.20
2023-03-17T08:48:58.058Z,12.37
2023-03-17T08:51:30.221Z,12.63
2023-03-17T08:53:59.106Z,12.11
2023-03-17T08:56:27.089Z,11.74
2023-03-17T08:58:55.176Z,11.38
2023-03-17T09:01:24.424Z,11.10
2023-03-17T09:03:54.701Z,11.34
2023-03-17T09:06:23.303Z,11.37
2023-03-17T09:08:55.409Z,11.48
2023-03-17T09:11:26.607Z,11.33
2023-03-17T09:13:55.671Z,11.15
2023-03-17T09:16:24.946Z,10.87
2023-03-17T09:18:53.593Z,10.89
2023-03-17T09:21:22.232Z,10.86
2023-03-17T09:23:50.204Z,10.71
2023-03-17T09:26:20.408Z,11.04
2023-03-17T09:28:48.641Z,11.39
2023-03-17T09:31:16.943Z,11.86
2023-03-17T09:33:44.755Z,11.55
2023-03-17T09:36:13.541Z,11.70
2023-03-17T09:38:41.844Z,11.50
2023-03-17T09:41:30.389Z,11.44
2023-03-17T09:44:07.872Z,11.64
2023-03-17T09:46:47.736Z,11.64
2023-03-17T09:49:20.740Z,11.65
2023-03-17T09:51:50.432Z,11.87
2023-03-17T09:54:26.843Z,12.31
2023-03-17T09:57:13.834Z,12.35
2023-03-17T09:59:44.941Z,12.97
2023-03-17T10:02:22.757Z,12.94
2023-03-17T10:04:51.890Z,12.92
2023-03-17T10:07:28.481Z,13.20
2023-03-17T10:10:02.812Z,13.04
2023-03-17T10:12:44.407Z,13.12
2023-03-17T10:15:21.887Z,13.22
2023-03-17T10:17:51.966Z,13.62
2023-03-17T10:20:25.437Z,13.88
2023-03-17T10:22:58.257Z,13.94
2023-03-17T10:25:30.119Z,13.81
2023-03-17T10:28:03.495Z,13.68
2023-03-17T10:30:34.729Z,13.43
2023-03-17T10:33:06.915Z,13.51
2023-03-17T10:35:36.717Z,13.44
2023-03-17T10:38:16.964Z,13.45
2023-03-17T10:40:48.379Z,13.71
2023-03-17T10:43:22.848Z,14.06
2023-03-17T10:46:03.092Z,13.78
2023-03-17T10:48:32.105Z,13.56
2023-03-17T10:51:00.115Z,13.37
2023-03-17T10:53:28.953Z,13.38
2023-03-17T10:56:00.940Z,13.43
2023-03-17T10:58:38.758Z,13.32
2023-03-17T11:01:09.975Z,13.27
2023-03-17T11:03:41.045Z,13.22
2023-03-17T11:06:10.571Z,13.49
2023-03-17T11:08:42.454Z,13.44
2023-03-17T11:11:24.997Z,13.67
2023-03-17T11:14:02.918Z,13.68
2023-03-17T11:16:33.720Z,13.74
2023-03-17T11:19:02.652Z,13.92
2023-03-17T11:21:32.526Z,13.95
2023-03-17T11:24:06.517Z,13.92
2023-03-17T11:26:50.973Z,13.92
2023-03-17T11:29:32.970Z,13.96
2023-03-17T11:32:12.735Z,13.99
2023-03-17T11:34:52.066Z,13.88
2023-03-17T11:37:31.471Z,13.90
2023-03-17T11:40:07.956Z,13.86
2023-03-17T11:42:47.390Z,13.97
2023-03-17T11:45:28.221Z,13.74
2023-03-17T11:48:18.376Z,13.91
2023-03-17T11:50:57.593Z,13.86
2023-03-17T11:53:54.753Z,13.71
2023-03-17T11:56:30.652Z,13.77
2023-03-17T11:59:02.932Z,13.75
2023-03-17T12:01:45.614Z,13.66
2023-03-17T12:04:21.367Z,13.79
2023-03-17T12:06:54.965Z,14.08
2023-03-17T12:09:31.648Z,14.07
2023-03-17T12:12:03.398Z,14.09
2023-03-17T12:14:35.986Z,13.98
2023-03-17T12:17:13.589Z,13.96
2023-03-17T12:19:47.474Z,13.99
2023-03-17T12:22:23.632Z,14.21
2023-03-17T12:25:02.935Z,14.19
2023-03-17T12:27:35.238Z,14.49
2023-03-17T12:30:13.377Z,14.53
2023-03-17T12:32:49.388Z,14.34
2023-03-17T12:35:27.813Z,14.39
2023-03-17T12:37:57.069Z,14.27
2023-03-17T12:40:29.707Z,14.26
2023-03-17T12:43:15.219Z,14.28
2023-03-17T12:46:12.572Z,14.33
2023-03-17T12:48:58.925Z,14.19
2023-03-17T12:51:44.012Z,14.23
2023-03-17T12:54:20.067Z,14.12
2023-03-17T12:56:49.920Z,14.16
2023-03-17T12:59:20.475Z,14.13
2023-03-17T13:01:57.422Z,14.27
2023-03-17T13:04:32.629Z,14.21
2023-03-17T13:07:07.372Z,14.09
2023-03-17T13:09:48.278Z,14.09
2023-03-17T13:13:05.737Z,14.09
2023-03-17T13:15:53.701Z,14.19
2023-03-17T13:18:48.889Z,14.28
2023-03-17T13:21:20.511Z,14.44
2023-03-17T13:23:55.286Z,14.44
2023-03-17T13:26:44.703Z,14.45
2023-03-17T13:29:47.336Z,14.59
2023-03-17T13:32:38.352Z,14.54
2023-03-17T13:35:16.736Z,14.71
2023-03-17T13:38:06.051Z,14.61
2023-03-17T13:40:43.492Z,14.71
2023-03-17T13:43:30.401Z,14.65
2023-03-17T13:46:20.752Z,14.48
2023-03-17T13:48:49.378Z,14.53
2023-03-17T13:51:22.408Z,14.44
2023-03-17T13:53:54.641Z,14.47
2023-03-17T13:56:29.661Z,14.38
2023-03-17T13:59:13.794Z,14.28
2023-03-17T14:01:49.511Z,14.38
2023-03-17T14:04:21.785Z,14.32
2023-03-17T14:06:53.696Z,14.30
2023-03-17T14:09:32.915Z,14.25
2023-03-17T14:12:03.396Z,14.27
2023-03-17T14:14:39.622Z,14.25
2023-03-17T14:17:14.935Z,14.29
2023-03-17T14:19:59.954Z,14.20
2023-03-17T14:22:28.147Z,14.16
2023-03-17T14:25:00.272Z,14.18
2023-03-17T14:27:30.360Z,14.18
2023-03-17T14:30:05.531Z,14.10
2023-03-17T14:32:35.114Z,14.02
2023-03-17T14:35:04.183Z,14.02
2023-03-17T14:37:32.550Z,13.98
2023-03-17T14:40:00.572Z,13.95
2023-03-17T14:42:30.732Z,13.90
2023-03-17T14:45:03.394Z,13.86
2023-03-17T14:47:38.295Z,13.87
2023-03-17T14:50:15.002Z,13.88
2023-03-17T14:52:42.986Z,13.81
2023-03-17T14:55:15.059Z,13.78
2023-03-17T14:57:43.057Z,13.77
2023-03-17T15:00:36.528Z,13.71
2023-03-17T15:03:19.539Z,13.63
2023-03-17T15:05:49.188Z,13.62
2023-03-17T15:08:39.362Z,13.60
2023-03-17T15:11:08.788Z,13.57
2023-03-17T15:13:38.563Z,13.63
2023-03-17T15:16:07.511Z,13.60
2023-03-17T15:18:37.159Z,13.60
2023-03-17T15:21:06.849Z,13.56
2023-03-17T15:23:41.433Z,13.64
2023-03-17T15:26:23.507Z,13.57
2023-03-17T15:28:52.145Z,13.46
2023-03-17T15:31:23.589Z,13.50
2023-03-17T15:33:53.862Z,13.57
2023-03-17T15:36:32.434Z,13.48
2023-03-17T15:39:06.373Z,13.35
2023-03-17T15:41:34.171Z,13.33
2023-03-17T15:44:04.103Z,13.34
2023-03-17T15:46:33.832Z,13.27
2023-03-17T15:49:03.575Z,13.18
2023-03-17T15:51:32.135Z,13.07
2023-03-17T15:54:00.269Z,13.05
2023-03-17T15:56:28.476Z,13.09
2023-03-17T15:58:56.996Z,13.07
2023-03-17T16:01:27.802Z,12.99
2023-03-17T16:03:56.383Z,12.94
2023-03-17T16:06:26.774Z,12.87
2023-03-17T16:08:55.094Z,12.81
2023-03-17T16:11:28.204Z,12.75
2023-03-17T16:13:57.149Z,12.71
2023-03-17T16:16:32.248Z,12.63
2023-03-17T16:19:00.832Z,12.66
2023-03-17T16:21:30.813Z,12.63
2023-03-17T16:23:59.833Z,12.64
2023-03-17T16:26:28.169Z,12.55
2023-03-17T16:28:57.128Z,12.42
2023-03-17T16:31:29.257Z,12.34
2023-03-17T16:33:58.070Z,12.26
2023-03-17T16:36:27.019Z,12.29
2023-03-17T16:38:57.075Z,12.26
2023-03-17T16:41:27.226Z,12.38
2023-03-17T16:44:01.764Z,12.34
2023-03-17T16:46:34.547Z,12.36
2023-03-17T16:49:05.052Z,12.22
2023-03-17T16:51:34.105Z,12.15
2023-03-17T16:54:04.502Z,12.06
2023-03-17T16:56:32.535Z,11.98
2023-03-17T16:59:01.304Z,11.86
2023-03-17T17:01:30.530Z,11.93
2023-03-17T17:03:59.254Z,11.92
2023-03-17T17:06:27.072Z,11.83
2023-03-17T17:08:54.935Z,11.76
2023-03-17T17:11:26.074Z,11.51
2023-03-17T17:13:54.591Z,11.30
2023-03-17T17:16:26.725Z,11.37
2023-03-17T17:18:54.575Z,11.39
2023-03-17T17:21:22.668Z,11.27
2023-03-17T17:23:53.056Z,11.20
2023-03-17T17:26:21.288Z,11.08
2023-03-17T17:28:51.037Z,10.99
2023-03-17T17:31:18.977Z,11.05
2023-03-17T17:33:47.024Z,11.06
2023-03-17T17:36:16.585Z,11.12
2023-03-17T17:38:45.389Z,11.13
2023-03-17T17:41:14.411Z,11.01
2023-03-17T17:43:42.340Z,11.07
2023-03-17T17:46:17.922Z,11.25
2023-03-17T17:48:46.347Z,11.14
2023-03-17T17:51:14.807Z,11.09
2023-03-17T17:53:42.647Z,11.13
2023-03-17T17:56:14.824Z,11.09
2023-03-17T17:58:43.689Z,11.06
2023-03-17T18:01:13.571Z,11.00
2023-03-17T18:03:43.202Z,11.09
2023-03-17T18:06:11.629Z,11.20
2023-03-17T18:08:40.153Z,11.24
2023-03-17T18:11:08.723Z,11.11
2023-03-17T18:13:38.958Z,11.17
2023-03-17T18:16:09.799Z,11.20
2023-03-17T18:18:40.712Z,11.20
2023-03-17T18:21:10.808Z,11.15
2023-03-17T18:23:42.666Z,11.31
2023-03-17T18:26:10.563Z,11.21
2023-03-17T18:28:38.573Z,11.21
2023-03-17T18:31:10.491Z,11.24
2023-03-17T18:33:40.203Z,11.10
2023-03-17T18:36:11.597Z,11.03
2023-03-17T18:38:40.612Z,11.06
2023-03-17T18:41:11.191Z,11.03
2023-03-17T18:43:40.905Z,11.11
2023-03-17T18:46:08.873Z,11.16
2023-03-17T18:48:36.660Z,11.06
2023-03-17T18:51:09.404Z,11.03
2023-03-17T18:53:38.539Z,10.98
2023-03-17T18:56:07.440Z,10.98
2023-03-17T18:58:35.413Z,10.92
2023-03-17T19:01:03.930Z,10.96
2023-03-17T19:03:32.368Z,10.90
2023-03-17T19:06:10.919Z,10.86
2023-03-17T19:08:38.913Z,10.76
2023-03-17T19:11:07.727Z,10.74
2023-03-17T19:13:36.435Z,10.76
2023-03-17T19:16:04.882Z,10.71
2023-03-17T19:18:33.019Z,10.61
2023-03-17T19:21:01.224Z,10.57
2023-03-17T19:23:32.238Z,10.62
2023-03-17T19:26:00.473Z,10.57
2023-03-17T19:28:28.674Z,10.54
2023-03-17T19:30:56.787Z,10.54
2023-03-17T19:33:25.081Z,10.56
2023-03-17T19:35:56.004Z,10.54
2023-03-17T19:38:24.023Z,10.57
2023-03-17T19:40:53.485Z,10.52
2023-03-17T19:43:39.011Z,10.52
2023-03-17T19:46:08.834Z,10.53
2023-03-17T19:48:37.469Z,10.50
2023-03-17T19:51:06.720Z,10.40
2023-03-17T19:53:35.506Z,10.39
2023-03-17T19:56:05.636Z,10.38
2023-03-17T19:58:33.535Z,10.36
2023-03-17T20:01:01.633Z,10.32
2023-03-17T20:03:29.663Z,10.40
2023-03-17T20:05:57.427Z,10.62
2023-03-17T20:08:25.247Z,10.58
2023-03-17T20:10:53.992Z,10.55
2023-03-17T20:13:23.348Z,10.57
2023-03-17T20:15:52.943Z,10.65
2023-03-17T20:18:21.029Z,10.55
2023-03-17T20:20:52.222Z,10.50
2023-03-17T20:23:21.574Z,10.49
2023-03-17T20:25:50.778Z,10.36
2023-03-17T20:28:19.957Z,10.24
2023-03-17T20:30:50.333Z,10.18
2023-03-17T20:33:18.506Z,10.17
2023-03-17T20:35:47.601Z,10.21
2023-03-17T20:38:16.433Z,10.25
2023-03-17T20:40:45.010Z,10.25
2023-03-17T20:43:13.120Z,10.27
2023-03-17T20:45:41.071Z,10.30
2023-03-17T20:48:10.762Z,10.21
2023-03-17T20:50:41.229Z,10.20
2023-03-17T20:53:09.732Z,10.22
2023-03-17T20:55:38.035Z,10.32
2023-03-17T20:58:05.766Z,10.36
2023-03-17T21:00:33.962Z,10.31
2023-03-17T21:03:02.246Z,10.31
2023-03-17T21:05:32.736Z,10.37
2023-03-17T21:08:01.256Z,10.41
2023-03-17T21:10:29.396Z,10.47
2023-03-17T21:12:57.258Z,10.55
2023-03-17T21:15:25.552Z,10.68
2023-03-17T21:17:53.604Z,10.81
2023-03-17T21:20:22.433Z,10.78
2023-03-17T21:22:51.537Z,10.78
2023-03-17T21:25:20.076Z,10.89
2023-03-17T21:27:48.783Z,10.92
2023-03-17T21:30:17.314Z,10.88
2023-03-17T21:32:45.383Z,10.83
2023-03-17T21:35:13.369Z,10.71
2023-03-17T21:37:41.521Z,10.64
2023-03-17T21:40:13.797Z,10.53
2023-03-17T21:42:42.807Z,10.53
2023-03-17T21:45:11.330Z,10.53
2023-03-17T21:47:40.836Z,10.50
2023-03-17T21:50:09.817Z,10.43
2023-03-17T21:52:38.002Z,10.35
2023-03-17T21:55:07.422Z,10.34
2023-03-17T21:57:37.257Z,10.42
2023-03-17T22:00:06.475Z,10.47
2023-03-17T22:02:41.759Z,10.48
2023-03-17T22:05:11.526Z,10.44
2023-03-17T22:07:40.891Z,10.45
2023-03-17T22:10:10.363Z,10.47
2023-03-17T22:12:39.535Z,10.47
2023-03-17T22:15:10.256Z,10.45
2023-03-17T22:17:39.606Z,10.44
2023-03-17T22:20:09.091Z,10.40
2023-03-17T22:22:37.005Z,10.32
2023-03-17T22:25:06.259Z,10.37
2023-03-17T22:27:34.666Z,10.39
2023-03-17T22:30:04.021Z,10.33
2023-03-17T22:32:32.282Z,10.35
2023-03-17T22:35:00.220Z,10.32
2023-03-17T22:37:28.585Z,10.30
2023-03-17T22:40:02.190Z,10.27
2023-03-17T22:42:30.544Z,10.32
2023-03-17T22:44:58.352Z,10.32
2023-03-17T22:47:28.027Z,10.29
2023-03-17T22:49:55.999Z,10.20
2023-03-17T22:52:24.161Z,10.21
2023-03-17T22:54:52.091Z,10.24
2023-03-17T22:57:19.872Z,10.25
2023-03-17T22:59:47.814Z,10.23
2023-03-17T23:02:18.427Z,10.20
2023-03-17T23:04:48.070Z,10.18
2023-03-17T23:07:16.413Z,10.14
2023-03-17T23:09:45.310Z,10.12
2023-03-17T23:12:13.883Z,10.14
2023-03-17T23:14:43.604Z,10.14
2023-03-17T23:17:11.549Z,10.14
2023-03-17T23:19:39.322Z,10.14
2023-03-17T23:22:08.433Z,10.17
2023-03-17T23:24:36.449Z,10.17
2023-03-17T23:27:04.158Z,10.22
2023-03-17T23:29:32.282Z,10.26
2023-03-17T23:32:00.704Z,10.27
2023-03-17T23:34:28.519Z,10.35
2023-03-17T23:36:56.312Z,10.40
2023-03-17T23:39:25.583Z,10.44
2023-03-17T23:41:53.376Z,10.47
2023-03-17T23:44:21.562Z,10.50
2023-03-17T23:46:49.938Z,10.60
2023-03-17T23:49:17.924Z,10.71
2023-03-17T23:51:46.066Z,10.68
2023-03-17T23:54:14.424Z,10.66
2023-03-17T23:56:43.915Z,10.56
2023-03-17T23:59:12.899Z,10.48
